createdAt,value
2019-02-14T00:01:40.469Z,5.16
2019-02-14T00:04:11.373Z,5.17
2019-02-14T00:06:42.317Z,5.19
2019-02-14T00:09:15.888Z,5.20
2019-02-14T00:11:46.844Z,5.25
2019-02-14T00:14:17.745Z,5.25
2019-02-14T00:16:48.676Z,5.25
2019-02-14T00:19:21.114Z,5.26
2019-02-14T00:21:52.105Z,5.29
2019-02-14T00:24:23.125Z,5.28
2019-02-14T00:26:54.129Z,5.32
2019-02-14T00:29:25.894Z,5.34
2019-02-14T00:31:57.013Z,5.35
2019-02-14T00:34:27.981Z,5.38
2019-02-14T00:36:58.939Z,5.40
2019-02-14T00:39:29.896Z,5.40
2019-02-14T00:42:00.862Z,5.42
2019-02-14T00:44:31.754Z,5.43
2019-02-14T00:47:03.040Z,5.46
2019-02-14T00:49:33.977Z,5.51
2019-02-14T00:52:04.898Z,5.52
2019-02-14T00:54:37.260Z,5.58
2019-02-14T00:57:08.273Z,5.59
2019-02-14T00:59:39.117Z,5.61
2019-02-14T01:02:10.102Z,5.63
2019-02-14T01:04:40.999Z,5.62
2019-02-14T01:07:13.137Z,5.65
2019-02-14T01:09:44.006Z,5.66
2019-02-14T01:12:15.027Z,5.65
2019-02-14T01:14:45.991Z,5.67
2019-02-14T01:17:16.927Z,5.69
2019-02-14T01:19:47.825Z,5.66
2019-02-14T01:22:18.837Z,5.69
2019-02-14T01:24:49.742Z,5.69
2019-02-14T01:27:20.696Z,5.68
2019-02-14T01:29:52.574Z,5.71
2019-02-14T01:32:28.992Z,5.70
2019-02-14T01:34:59.873Z,5.72
2019-02-14T01:37:30.907Z,5.77
2019-02-14T01:43:01.796Z,5.81
2019-02-14T01:45:35.401Z,5.83
2019-02-14T01:48:06.311Z,5.86
2019-02-14T01:50:37.282Z,5.89
2019-02-14T01:53:08.199Z,5.95
2019-02-14T01:55:39.098Z,5.98
2019-02-14T01:58:10.219Z,6.02
2019-02-14T02:00:41.122Z,6.06
2019-02-14T02:03:12.045Z,6.08
2019-02-14T02:05:50.675Z,6.11
2019-02-14T02:08:15.662Z,6.18
2019-02-14T02:10:48.082Z,6.22
2019-02-14T02:13:22.023Z,6.27
2019-02-14T02:15:52.921Z,6.32
2019-02-14T02:18:24.306Z,6.34
2019-02-14T02:20:55.382Z,6.37
2019-02-14T02:23:26.299Z,6.43
2019-02-14T02:25:57.191Z,6.47
2019-02-14T02:28:28.171Z,6.49
2019-02-14T02:30:59.072Z,6.54
2019-02-14T02:33:30.125Z,6.60
2019-02-14T02:36:01.049Z,6.65
2019-02-14T02:38:32.081Z,6.65
2019-02-14T02:41:02.985Z,6.67
2019-02-14T02:43:33.948Z,6.69
2019-02-14T02:46:04.838Z,6.73
2019-02-14T02:48:35.760Z,6.73
2019-02-14T02:51:06.654Z,6.74
2019-02-14T02:53:37.579Z,6.83
2019-02-14T02:56:08.476Z,6.85
2019-02-14T02:58:39.581Z,6.85
2019-02-14T03:01:10.488Z,6.88
2019-02-14T03:03:44.407Z,6.89
2019-02-14T03:06:18.434Z,6.92
2019-02-14T03:08:49.450Z,6.96
2019-02-14T03:11:20.324Z,6.98
2019-02-14T03:13:51.266Z,7.03
2019-02-14T03:16:25.076Z,7.04
2019-02-14T03:18:56.007Z,7.02
2019-02-14T03:21:28.821Z,7.04
2019-02-14T03:23:59.712Z,7.05
2019-02-14T03:26:30.615Z,7.07
2019-02-14T03:29:03.797Z,7.04
2019-02-14T03:31:34.645Z,7.09
2019-02-14T03:34:05.570Z,7.10
2019-02-14T03:36:36.459Z,7.13
2019-02-14T03:39:07.493Z,7.10
2019-02-14T03:41:38.388Z,7.10
2019-02-14T03:44:09.338Z,7.12
2019-02-14T03:46:40.232Z,7.07
2019-02-14T03:49:11.155Z,7.11
2019-02-14T03:51:42.067Z,7.11
2019-02-14T03:54:13.102Z,7.11
2019-02-14T03:56:44.000Z,7.10
2019-02-14T03:59:14.944Z,7.11
2019-02-14T04:01:45.839Z,7.17
2019-02-14T04:04:16.774Z,7.16
2019-02-14T04:06:47.664Z,7.16
2019-02-14T04:09:18.594Z,7.11
2019-02-14T04:11:49.621Z,7.12
2019-02-14T04:14:20.592Z,7.10
2019-02-14T04:16:51.493Z,7.12
2019-02-14T04:19:25.630Z,7.16
2019-02-14T04:21:56.512Z,7.16
2019-02-14T04:24:27.441Z,7.18
2019-02-14T04:26:58.327Z,7.20
2019-02-14T04:29:29.294Z,7.17
2019-02-14T04:32:00.199Z,7.15
2019-02-14T04:34:31.127Z,7.18
2019-02-14T04:37:02.018Z,7.19
2019-02-14T04:39:33.026Z,7.17
2019-02-14T04:42:03.944Z,7.18
2019-02-14T04:44:34.922Z,7.16
2019-02-14T04:47:05.816Z,7.20
2019-02-14T04:49:38.334Z,7.23
2019-02-14T04:52:09.222Z,7.21
2019-02-14T04:54:40.156Z,7.24
2019-02-14T04:57:11.039Z,7.22
2019-02-14T04:59:42.164Z,7.21
2019-02-14T05:02:15.951Z,7.21
2019-02-14T05:04:46.883Z,7.18
2019-02-14T05:07:17.785Z,7.14
2019-02-14T05:09:48.723Z,7.13
2019-02-14T05:12:19.622Z,7.07
2019-02-14T05:14:50.623Z,7.10
2019-02-14T05:17:21.510Z,7.06
2019-02-14T05:19:55.112Z,7.01
2019-02-14T05:22:26.087Z,6.96
2019-02-14T05:24:59.919Z,6.95
2019-02-14T05:27:30.977Z,6.93
2019-02-14T05:30:02.017Z,6.89
2019-02-14T05:32:32.926Z,6.84
2019-02-14T05:35:03.838Z,6.84
2019-02-14T05:37:34.744Z,6.82
2019-02-14T05:40:08.418Z,6.78
2019-02-14T05:42:39.634Z,6.80
2019-02-14T05:45:13.936Z,6.78
2019-02-14T05:47:44.855Z,6.73
2019-02-14T05:50:15.895Z,6.75
2019-02-14T05:52:46.848Z,6.70
2019-02-14T05:55:17.742Z,6.70
2019-02-14T05:57:48.750Z,6.72
2019-02-14T06:00:22.432Z,6.74
2019-02-14T06:02:56.133Z,6.74
2019-02-14T06:05:27.070Z,6.76
2019-02-14T06:07:57.967Z,6.79
2019-02-14T06:10:28.903Z,6.81
2019-02-14T06:12:59.815Z,6.83
2019-02-14T06:15:30.809Z,6.88
2019-02-14T06:18:01.701Z,6.90
2019-02-14T06:20:32.634Z,6.93
2019-02-14T06:23:03.536Z,6.95
2019-02-14T06:25:34.477Z,7.00
2019-02-14T06:28:05.477Z,7.06
2019-02-14T06:30:37.271Z,7.12
2019-02-14T06:33:09.884Z,7.15
2019-02-14T06:35:40.843Z,7.18
2019-02-14T06:38:14.625Z,7.18
2019-02-14T06:40:45.533Z,7.17
2019-02-14T06:43:19.130Z,7.19
2019-02-14T06:45:50.120Z,7.17
2019-02-14T06:48:21.226Z,7.20
2019-02-14T06:50:52.735Z,7.17
2019-02-14T06:53:23.588Z,7.18
2019-02-14T06:55:54.524Z,7.20
2019-02-14T06:58:25.424Z,7.26
2019-02-14T07:00:58.048Z,7.26
2019-02-14T07:03:28.943Z,7.32
2019-02-14T07:05:59.869Z,7.38
2019-02-14T07:08:30.779Z,7.40
2019-02-14T07:11:01.711Z,7.44
2019-02-14T07:13:32.630Z,7.45
2019-02-14T07:16:03.675Z,7.48
2019-02-14T07:18:34.589Z,7.51
2019-02-14T07:21:05.525Z,7.54
2019-02-14T07:23:39.276Z,7.59
2019-02-14T07:26:10.218Z,7.61
2019-02-14T07:28:41.114Z,7.62
2019-02-14T07:31:12.089Z,7.69
2019-02-14T07:33:43.343Z,7.71
2019-02-14T07:36:14.272Z,7.73
2019-02-14T07:38:45.243Z,7.76
2019-02-14T07:41:16.175Z,7.76
2019-02-14T07:43:47.064Z,7.77
2019-02-14T07:46:22.683Z,7.83
2019-02-14T07:48:50.759Z,7.87
2019-02-14T07:51:21.746Z,7.88
2019-02-14T07:53:52.633Z,7.89
2019-02-14T07:56:23.574Z,7.93
2019-02-14T07:58:54.459Z,7.99
2019-02-14T08:01:25.486Z,8.01
2019-02-14T08:03:56.394Z,8.04
2019-02-14T08:06:27.318Z,8.10
2019-02-14T08:08:58.225Z,8.07
2019-02-14T08:11:29.155Z,8.13
2019-02-14T08:14:00.059Z,8.15
2019-02-14T08:16:31.020Z,8.19
2019-02-14T08:19:01.923Z,8.18
2019-02-14T08:21:32.864Z,8.20
2019-02-14T08:24:03.765Z,8.24
2019-02-14T08:26:37.392Z,8.28
2019-02-14T08:29:08.291Z,8.20
2019-02-14T08:31:39.415Z,8.26
2019-02-14T08:34:13.246Z,8.32
2019-02-14T08:36:44.280Z,8.31
2019-02-14T08:39:15.209Z,8.30
2019-02-14T08:41:46.149Z,8.36
2019-02-14T08:44:17.051Z,8.37
2019-02-14T08:46:48.004Z,8.32
2019-02-14T08:49:19.132Z,8.33
2019-02-14T08:51:50.902Z,8.39
2019-02-14T08:54:21.792Z,8.39
2019-02-14T08:56:52.726Z,8.46
2019-02-14T08:59:23.629Z,8.49
2019-02-14T09:01:54.583Z,8.48
2019-02-14T09:04:25.482Z,8.48
2019-02-14T09:06:56.408Z,8.55
2019-02-14T09:09:27.319Z,8.60
2019-02-14T09:11:58.247Z,8.58
2019-02-14T09:14:29.158Z,8.62
2019-02-14T09:17:05.881Z,8.70
2019-02-14T09:19:36.787Z,8.78
2019-02-14T09:22:07.797Z,8.73
2019-02-14T09:24:38.690Z,8.72
2019-02-14T09:27:09.635Z,8.74
2019-02-14T09:29:40.536Z,8.73
2019-02-14T09:32:11.609Z,8.74
2019-02-14T09:34:43.364Z,8.78
2019-02-14T09:37:14.323Z,8.77
2019-02-14T09:39:45.265Z,8.80
2019-02-14T09:42:18.717Z,8.79
2019-02-14T09:44:48.799Z,8.83
2019-02-14T09:47:19.783Z,8.89
2019-02-14T09:49:54.701Z,8.87
2019-02-14T09:52:25.639Z,8.89
2019-02-14T09:54:56.574Z,8.94
2019-02-14T09:57:27.493Z,9.00
2019-02-14T09:59:58.392Z,9.08
2019-02-14T10:02:29.367Z,9.10
2019-02-14T10:05:00.423Z,9.13
2019-02-14T10:07:31.358Z,9.14
2019-02-14T10:10:02.261Z,9.16
2019-02-14T10:12:33.220Z,9.27
2019-02-14T10:15:04.722Z,9.36
2019-02-14T10:17:35.779Z,9.37
2019-02-14T10:20:12.689Z,9.40
2019-02-14T10:22:43.623Z,9.40
2019-02-14T10:25:15.037Z,9.40
2019-02-14T10:27:48.940Z,9.39
2019-02-14T10:30:21.885Z,9.34
2019-02-14T10:32:53.977Z,9.37
2019-02-14T10:35:25.846Z,9.34
2019-02-14T10:37:58.293Z,9.27
2019-02-14T10:40:29.980Z,9.16
2019-02-14T10:43:00.915Z,9.16
2019-02-14T10:45:31.814Z,9.23
2019-02-14T10:48:02.830Z,9.23
2019-02-14T10:50:33.749Z,9.21
2019-02-14T10:53:04.750Z,9.19
2019-02-14T10:55:38.334Z,9.21
2019-02-14T10:58:09.269Z,9.18
2019-02-14T11:00:40.167Z,9.15
2019-02-14T11:03:11.212Z,9.13
2019-02-14T11:05:42.140Z,9.15
2019-02-14T11:08:13.057Z,9.08
2019-02-14T11:10:43.954Z,9.06
2019-02-14T11:13:16.474Z,9.00
2019-02-14T11:15:47.390Z,9.02
2019-02-14T11:18:18.374Z,8.96
2019-02-14T11:20:49.523Z,8.95
2019-02-14T11:23:20.415Z,8.92
2019-02-14T11:25:52.105Z,8.93
2019-02-14T11:28:23.045Z,8.87
2019-02-14T11:30:53.945Z,8.96
2019-02-14T11:33:25.167Z,8.94
2019-02-14T11:35:59.868Z,8.95
2019-02-14T11:38:30.881Z,8.89
2019-02-14T11:41:01.792Z,8.87
2019-02-14T11:43:32.734Z,8.86
2019-02-14T11:46:03.626Z,8.80
2019-02-14T11:48:34.597Z,8.80
2019-02-14T11:51:05.513Z,8.81
2019-02-14T11:53:36.509Z,8.83
2019-02-14T11:56:07.425Z,8.88
2019-02-14T11:58:38.357Z,8.92
2019-02-14T12:01:09.267Z,8.96
2019-02-14T12:03:43.470Z,8.88
2019-02-14T12:06:17.620Z,8.92
2019-02-14T12:08:59.517Z,8.90
2019-02-14T12:11:22.315Z,8.97
2019-02-14T12:13:53.322Z,8.95
2019-02-14T12:16:30.416Z,8.91
2019-02-14T12:18:56.993Z,8.99
2019-02-14T12:21:29.014Z,9.06
2019-02-14T12:23:59.920Z,9.12
2019-02-14T12:26:30.824Z,9.20
2019-02-14T12:29:01.745Z,9.24
2019-02-14T12:31:32.645Z,9.23
2019-02-14T12:34:03.827Z,9.24
2019-02-14T12:36:35.088Z,9.30
2019-02-14T12:41:40.667Z,9.32
2019-02-14T12:44:11.599Z,9.29
2019-02-14T12:46:45.672Z,9.26
2019-02-14T12:49:16.631Z,9.25
2019-02-14T12:51:47.553Z,9.24
2019-02-14T12:54:18.509Z,9.26
2019-02-14T12:56:49.401Z,9.20
2019-02-14T12:59:20.330Z,9.20
2019-02-14T13:01:51.233Z,9.16
2019-02-14T13:04:22.177Z,9.17
2019-02-14T13:06:53.081Z,9.13
2019-02-14T13:09:24.076Z,9.09
2019-02-14T13:11:55.001Z,9.07
2019-02-14T13:14:25.933Z,9.04
2019-02-14T13:16:56.837Z,9.10
2019-02-14T13:19:27.810Z,9.07
2019-02-14T13:21:58.731Z,9.12
2019-02-14T13:24:29.654Z,9.14
2019-02-14T13:27:02.869Z,9.17
2019-02-14T13:29:33.822Z,9.14
2019-02-14T13:32:04.719Z,9.17
2019-02-14T13:34:35.825Z,9.17
2019-02-14T13:37:07.521Z,9.17
2019-02-14T13:39:38.528Z,9.09
2019-02-14T13:42:09.508Z,9.04
2019-02-14T13:44:40.547Z,9.04
2019-02-14T13:47:11.462Z,9.05
2019-02-14T13:49:45.344Z,9.04
2019-02-14T13:52:16.246Z,9.07
2019-02-14T13:54:47.204Z,9.08
2019-02-14T13:57:18.206Z,9.06
2019-02-14T13:59:49.146Z,9.03
2019-02-14T14:02:20.037Z,9.00
2019-02-14T14:04:50.990Z,8.99
2019-02-14T14:07:21.899Z,8.98
2019-02-14T14:09:52.834Z,8.96
2019-02-14T14:12:25.335Z,8.89
2019-02-14T14:14:57.730Z,8.90
2019-02-14T14:17:28.622Z,8.90
2019-02-14T14:19:59.674Z,8.85
2019-02-14T14:22:30.568Z,8.86
2019-02-14T14:25:01.504Z,8.86
2019-02-14T14:27:32.419Z,8.83
2019-02-14T14:30:04.509Z,8.81
2019-02-14T14:32:35.427Z,8.86
2019-02-14T14:35:13.696Z,8.86
2019-02-14T14:37:45.428Z,8.80
2019-02-14T14:40:17.663Z,8.82
2019-02-14T14:42:53.418Z,8.80
2019-02-14T14:45:42.044Z,8.76
2019-02-14T14:48:19.525Z,8.77
2019-02-14T14:50:46.703Z,8.77
2019-02-14T14:53:17.614Z,8.77
2019-02-14T14:55:48.540Z,8.75
2019-02-14T14:58:19.471Z,8.73
2019-02-14T15:00:50.390Z,8.73
2019-02-14T15:03:21.304Z,8.73
2019-02-14T15:05:52.361Z,8.74
2019-02-14T15:08:26.239Z,8.69
2019-02-14T15:10:57.628Z,8.66
2019-02-14T15:13:28.538Z,8.66
2019-02-14T15:16:02.559Z,8.68
2019-02-14T15:18:33.451Z,8.71
2019-02-14T15:21:04.408Z,8.67
2019-02-14T15:23:35.314Z,8.69
2019-02-14T15:26:06.260Z,8.66
2019-02-14T15:28:37.641Z,8.66
2019-02-14T15:31:08.668Z,8.66
2019-02-14T15:33:39.591Z,8.65
2019-02-14T15:36:13.309Z,8.61
2019-02-14T15:38:45.094Z,8.58
2019-02-14T15:41:16.025Z,8.60
2019-02-14T15:43:46.927Z,8.59
2019-02-14T15:46:17.861Z,8.56
2019-02-14T15:48:48.766Z,8.51
2019-02-14T15:51:20.108Z,8.48
2019-02-14T15:53:51.135Z,8.46
2019-02-14T15:56:22.077Z,8.44
2019-02-14T15:58:55.347Z,8.40
2019-02-14T16:01:25.960Z,8.42
2019-02-14T16:03:56.860Z,8.42
2019-02-14T16:06:30.226Z,8.37
2019-02-14T16:09:00.410Z,8.37
2019-02-14T16:11:31.346Z,8.35
2019-02-14T16:14:02.277Z,8.30
2019-02-14T16:16:33.277Z,8.24
2019-02-14T16:19:04.187Z,8.21
2019-02-14T16:21:35.136Z,8.22
2019-02-14T16:24:06.041Z,8.21
2019-02-14T16:26:38.813Z,8.18
2019-02-14T16:29:09.580Z,8.16
2019-02-14T16:31:41.226Z,8.13
2019-02-14T16:34:12.149Z,8.04
2019-02-14T16:36:44.393Z,8.09
2019-02-14T16:39:15.382Z,8.08
2019-02-14T16:41:46.353Z,8.04
2019-02-14T16:44:17.254Z,8.10
2019-02-14T16:46:48.185Z,8.09
2019-02-14T16:49:21.781Z,8.08
2019-02-14T16:51:52.747Z,8.08
2019-02-14T16:54:23.657Z,8.05
2019-02-14T16:56:54.598Z,8.07
2019-02-14T16:59:28.234Z,8.05
2019-02-14T17:01:59.165Z,8.02
2019-02-14T17:04:30.079Z,8.05
2019-02-14T17:07:01.034Z,8.01
2019-02-14T17:09:35.092Z,8.02
2019-02-14T17:12:06.034Z,7.98
2019-02-14T17:14:39.817Z,8.02
2019-02-14T17:17:13.800Z,8.02
2019-02-14T17:19:44.704Z,8.01
2019-02-14T17:22:15.755Z,7.99
2019-02-14T17:24:46.654Z,8.00
2019-02-14T17:27:17.585Z,8.01
2019-02-14T17:29:48.566Z,8.03
2019-02-14T17:32:22.537Z,8.00
2019-02-14T17:34:53.439Z,8.03
2019-02-14T17:37:24.500Z,8.02
2019-02-14T17:39:56.169Z,8.05
2019-02-14T17:42:31.250Z,8.03
2019-02-14T17:45:02.155Z,8.03
2019-02-14T17:47:33.087Z,7.99
2019-02-14T17:50:04.409Z,8.01
2019-02-14T17:52:35.376Z,8.02
2019-02-14T17:55:08.873Z,8.01
2019-02-14T17:57:39.885Z,8.00
2019-02-14T18:00:12.769Z,7.99
2019-02-14T18:02:43.715Z,8.01
2019-02-14T18:05:14.624Z,7.97
2019-02-14T18:07:45.614Z,7.97
2019-02-14T18:10:19.450Z,7.95
2019-02-14T18:12:50.395Z,7.97
2019-02-14T18:15:27.331Z,7.89
2019-02-14T18:17:58.258Z,7.97
2019-02-14T18:20:29.160Z,8.01
2019-02-14T18:23:00.114Z,8.03
2019-02-14T18:25:31.030Z,8.03
2019-02-14T18:28:02.563Z,8.00
2019-02-14T18:30:53.289Z,8.01
2019-02-14T18:33:24.223Z,8.00
2019-02-14T18:35:55.231Z,7.99
2019-02-14T18:38:26.180Z,8.00
2019-02-14T18:41:03.837Z,8.00
2019-02-14T18:43:30.498Z,7.97
2019-02-14T18:46:01.478Z,7.94
2019-02-14T18:48:32.412Z,7.94
2019-02-14T18:51:03.319Z,7.95
2019-02-14T18:53:34.276Z,7.97
2019-02-14T18:56:05.192Z,7.98
2019-02-14T18:58:38.829Z,7.98
2019-02-14T19:01:09.737Z,7.97
2019-02-14T19:03:43.345Z,7.99
2019-02-14T19:06:14.246Z,7.99
2019-02-14T19:08:45.221Z,7.99
2019-02-14T19:11:16.130Z,8.00
2019-02-14T19:13:47.071Z,7.97
2019-02-14T19:16:18.075Z,7.98
2019-02-14T19:18:49.085Z,7.91
2019-02-14T19:21:19.991Z,7.90
2019-02-14T19:23:50.959Z,7.89
2019-02-14T19:26:21.872Z,7.85
2019-02-14T19:28:52.802Z,7.83
2019-02-14T19:31:23.776Z,7.82
2019-02-14T19:33:54.704Z,7.86
2019-02-14T19:36:25.648Z,7.84
2019-02-14T19:38:56.665Z,7.84
2019-02-14T19:41:27.575Z,7.82
2019-02-14T19:43:58.512Z,7.78
2019-02-14T19:46:29.402Z,7.83
2019-02-14T19:49:00.402Z,7.85
2019-02-14T19:51:31.314Z,7.85
2019-02-14T19:54:02.264Z,7.89
2019-02-14T19:56:33.169Z,7.91
2019-02-14T19:59:04.102Z,7.91
2019-02-14T20:01:35.018Z,7.94
2019-02-14T20:04:06.024Z,7.90
2019-02-14T20:06:39.681Z,7.90
2019-02-14T20:09:10.731Z,7.92
2019-02-14T20:11:41.653Z,7.89
2019-02-14T20:14:12.587Z,7.90
2019-02-14T20:16:43.487Z,7.90
2019-02-14T20:19:15.972Z,7.86
2019-02-14T20:21:46.869Z,7.87
2019-02-14T20:24:17.820Z,7.79
2019-02-14T20:26:48.726Z,7.75
2019-02-14T20:29:19.664Z,7.77
2019-02-14T20:31:50.668Z,7.78
2019-02-14T20:34:21.590Z,7.77
2019-02-14T20:36:52.494Z,7.80
2019-02-14T20:39:23.580Z,7.80
2019-02-14T20:41:55.284Z,7.80
2019-02-14T20:44:26.229Z,7.82
2019-02-14T20:46:57.145Z,7.82
2019-02-14T20:49:28.180Z,7.84
2019-02-14T20:51:59.084Z,7.86
2019-02-14T20:54:33.000Z,7.86
2019-02-14T20:57:03.907Z,7.90
2019-02-14T20:59:37.734Z,7.90
2019-02-14T21:02:08.740Z,7.90
2019-02-14T21:04:42.369Z,7.89
2019-02-14T21:07:13.269Z,7.90
2019-02-14T21:09:44.581Z,7.90
2019-02-14T21:12:15.561Z,7.90
2019-02-14T21:14:46.490Z,7.89
2019-02-14T21:17:17.400Z,7.91
2019-02-14T21:19:48.334Z,7.94
2019-02-14T21:22:22.165Z,7.93
2019-02-14T21:24:53.126Z,7.91
2019-02-14T21:27:24.053Z,7.91
2019-02-14T21:29:54.982Z,7.89
2019-02-14T21:32:28.926Z,7.91
2019-02-14T21:34:59.851Z,7.93
2019-02-14T21:37:30.757Z,7.90
2019-02-14T21:40:01.940Z,7.87
2019-02-14T21:42:32.911Z,7.88
2019-02-14T21:45:04.471Z,7.91
2019-02-14T21:47:35.408Z,7.84
2019-02-14T21:50:12.059Z,7.86
2019-02-14T21:52:43.107Z,7.84
2019-02-14T21:55:14.915Z,7.84
2019-02-14T21:57:48.830Z,7.78
2019-02-14T22:00:25.485Z,7.81
2019-02-14T22:02:56.402Z,7.83
2019-02-14T22:05:27.335Z,7.79
2019-02-14T22:07:58.603Z,7.82
2019-02-14T22:10:29.559Z,7.76
2019-02-14T22:13:02.103Z,7.74
2019-02-14T22:15:33.127Z,7.72
2019-02-14T22:18:04.074Z,7.62
2019-02-14T22:20:35.102Z,7.60
2019-02-14T22:23:06.006Z,7.66
2019-02-14T22:25:36.955Z,7.62
2019-02-14T22:28:07.869Z,7.58
2019-02-14T22:30:41.203Z,7.58
2019-02-14T22:33:12.112Z,7.50
2019-02-14T22:35:43.050Z,7.43
2019-02-14T22:38:13.955Z,7.34
2019-02-14T22:40:44.904Z,7.33
2019-02-14T22:43:15.808Z,7.27
2019-02-14T22:45:46.756Z,7.34
2019-02-14T22:48:17.652Z,7.38
2019-02-14T22:50:50.044Z,7.28
2019-02-14T22:53:22.038Z,7.30
2019-02-14T22:55:53.101Z,7.24
2019-02-14T22:58:24.072Z,7.27
2019-02-14T23:00:57.974Z,7.29
2019-02-14T23:03:28.880Z,7.24
2019-02-14T23:05:59.815Z,7.19
2019-02-14T23:08:30.736Z,7.18
2019-02-14T23:11:01.690Z,7.19
2019-02-14T23:13:32.694Z,7.17
2019-02-14T23:16:03.634Z,7.11
2019-02-14T23:18:34.550Z,7.14
2019-02-14T23:21:05.479Z,7.16
2019-02-14T23:23:36.388Z,7.17
2019-02-14T23:26:07.354Z,7.09
2019-02-14T23:28:38.305Z,7.11
2019-02-14T23:31:09.268Z,7.06
2019-02-14T23:33:40.253Z,6.96
2019-02-14T23:36:11.255Z,6.94
2019-02-14T23:38:42.163Z,6.96
2019-02-14T23:41:13.124Z,6.90
2019-02-14T23:43:44.065Z,6.87
2019-02-14T23:46:15.004Z,6.86
2019-02-14T23:48:45.911Z,6.84
2019-02-14T23:51:16.924Z,6.83
2019-02-14T23:53:47.838Z,6.84
2019-02-14T23:56:18.797Z,6.79
2019-02-14T23:58:49.698Z,6.83
